createdAt,value
2023-03-23T15:59:12.925Z,22.94
2023-03-23T16:01:58.486Z,22.93
2023-03-23T16:04:46.289Z,22.92
2023-03-23T16:07:34.018Z,22.93
2023-03-23T16:10:23.745Z,22.94
2023-03-23T16:13:09.256Z,22.93
2023-03-23T16:15:54.551Z,22.93
2023-03-23T16:18:39.793Z,22.93
2023-03-23T16:21:25.526Z,22.92
2023-03-23T16:24:11.479Z,22.92
2023-03-23T16:26:56.927Z,22.91
2023-03-23T16:30:00.377Z,22.91
2023-03-23T16:32:47.959Z,22.90
2023-03-23T16:35:33.421Z,22.87
2023-03-23T16:38:19.088Z,22.87
2023-03-23T16:41:04.603Z,22.87
2023-03-23T16:43:50.242Z,22.87
2023-03-23T16:46:35.523Z,22.84
2023-03-23T16:49:20.769Z,22.86
2023-03-23T16:52:06.142Z,22.84
2023-03-23T16:54:51.418Z,22.84
2023-03-23T16:57:38.241Z,22.84
2023-03-23T17:00:25.261Z,22.88
2023-03-23T17:03:11.341Z,22.89
2023-03-23T17:05:59.838Z,22.89
2023-03-23T17:08:44.933Z,22.90
2023-03-23T17:11:30.586Z,22.90
2023-03-23T17:14:16.283Z,22.92
2023-03-23T17:17:01.817Z,22.94
2023-03-23T17:19:47.172Z,22.93
2023-03-23T17:22:32.687Z,22.93
2023-03-23T17:25:18.168Z,22.96
2023-03-23T17:28:05.788Z,22.97
2023-03-23T17:30:53.393Z,22.96
2023-03-23T17:33:38.477Z,22.95
2023-03-23T17:36:24.458Z,22.96
2023-03-23T17:39:10.253Z,22.94
2023-03-23T17:41:55.543Z,22.95
2023-03-23T17:44:41.903Z,22.96
2023-03-23T17:47:27.616Z,22.95
2023-03-23T17:50:13.353Z,22.94
2023-03-23T17:53:00.494Z,22.95
2023-03-23T17:55:46.442Z,22.99
2023-03-23T17:58:32.735Z,23.00
2023-03-23T18:01:18.313Z,23.03
2023-03-23T18:04:05.215Z,23.03
2023-03-23T18:06:50.827Z,23.04
2023-03-23T18:09:36.302Z,23.05
2023-03-23T18:12:21.600Z,22.99
2023-03-23T18:15:07.895Z,22.99
2023-03-23T18:17:53.087Z,22.96
2023-03-23T18:20:38.597Z,22.94
2023-03-23T18:23:23.872Z,22.94
2023-03-23T18:26:12.732Z,22.95
2023-03-23T18:28:58.696Z,22.95
2023-03-23T18:31:44.352Z,22.95
2023-03-23T18:34:31.332Z,22.95
2023-03-23T18:37:17.624Z,22.93
2023-03-23T18:43:46.495Z,22.94
2023-03-23T18:46:32.004Z,22.92
2023-03-23T18:49:17.810Z,22.91
2023-03-23T18:52:03.489Z,22.90
2023-03-23T18:54:49.147Z,22.89
2023-03-23T18:57:34.545Z,22.87
2023-03-23T19:00:21.638Z,22.88
2023-03-23T19:03:11.116Z,22.89
2023-03-23T19:06:00.337Z,22.86
2023-03-23T19:08:47.505Z,22.86
2023-03-23T19:11:32.928Z,22.83
2023-03-23T19:14:19.571Z,22.78
2023-03-23T19:17:05.066Z,22.78
2023-03-23T19:19:53.993Z,22.74
2023-03-23T19:22:40.618Z,22.71
2023-03-23T19:25:27.155Z,22.65
2023-03-23T19:29:03.311Z,22.61
2023-03-23T19:31:21.798Z,22.58
2023-03-23T19:34:08.751Z,22.55
2023-03-23T19:37:04.150Z,22.50
2023-03-23T19:40:09.136Z,22.49
2023-03-23T19:43:05.954Z,22.46
2023-03-23T19:45:52.077Z,22.40
2023-03-23T19:48:39.745Z,22.39
2023-03-23T19:51:27.597Z,22.35
2023-03-23T19:54:14.072Z,22.32
2023-03-23T19:57:01.245Z,22.29
2023-03-23T19:59:47.165Z,22.27
2023-03-23T20:02:33.164Z,22.26
2023-03-23T20:05:18.601Z,22.23
2023-03-23T20:08:04.938Z,22.19
2023-03-23T20:10:50.259Z,22.18
2023-03-23T20:13:35.897Z,22.15
2023-03-23T20:16:21.841Z,22.14
2023-03-23T20:19:08.749Z,22.11
2023-03-23T20:21:54.165Z,22.10
2023-03-23T20:24:40.099Z,22.08
2023-03-23T20:27:25.951Z,22.05
2023-03-23T20:30:12.320Z,22.03
2023-03-23T20:33:00.785Z,22.02
2023-03-23T20:35:46.397Z,22.00
2023-03-23T20:38:35.365Z,21.97
2023-03-23T20:41:20.720Z,21.95
2023-03-23T20:44:14.071Z,21.94
2023-03-23T20:47:02.622Z,21.93
2023-03-23T20:49:52.986Z,21.90
2023-03-23T20:52:41.047Z,21.90
2023-03-23T20:55:27.601Z,21.88
2023-03-23T20:58:14.593Z,21.87
2023-03-23T21:01:03.014Z,21.85
2023-03-23T21:03:52.098Z,21.83
2023-03-23T21:06:37.347Z,21.82
2023-03-23T21:09:23.267Z,21.80
2023-03-23T21:12:10.282Z,21.80
2023-03-23T21:14:55.835Z,21.78
2023-03-23T21:17:41.542Z,21.78
2023-03-23T21:20:27.172Z,21.76
2023-03-23T21:23:14.728Z,21.75
2023-03-23T21:26:02.785Z,21.73
2023-03-23T21:28:50.761Z,21.72
2023-03-23T21:31:37.326Z,21.70
2023-03-23T21:34:22.894Z,21.69
2023-03-23T21:37:08.341Z,21.68
2023-03-23T21:39:53.432Z,21.67
2023-03-23T21:42:42.258Z,21.66
2023-03-23T21:45:28.959Z,21.65
2023-03-23T21:48:15.430Z,21.63
2023-03-23T21:51:13.373Z,21.62
2023-03-23T21:53:59.031Z,21.61
2023-03-23T21:56:44.459Z,21.59
2023-03-23T21:59:29.702Z,21.57
2023-03-23T22:02:15.833Z,21.58
2023-03-23T22:05:01.423Z,21.57
2023-03-23T22:07:47.786Z,21.58
2023-03-23T22:10:33.328Z,21.57
2023-03-23T22:13:19.252Z,21.57
2023-03-23T22:16:07.614Z,21.58
2023-03-23T22:18:55.236Z,21.58
2023-03-23T22:21:41.186Z,21.57
2023-03-23T22:24:27.161Z,21.59
2023-03-23T22:27:12.609Z,21.59
2023-03-23T22:29:57.842Z,21.59
2023-03-23T22:32:43.362Z,21.59
2023-03-23T22:35:28.989Z,21.59
2023-03-23T22:38:14.658Z,21.60
2023-03-23T22:41:02.346Z,21.59
2023-03-23T22:43:48.183Z,21.60
2023-03-23T22:46:33.992Z,21.60
2023-03-23T22:49:19.207Z,21.61
2023-03-23T22:52:04.838Z,21.61
2023-03-23T22:54:50.392Z,21.61
2023-03-23T22:57:36.037Z,21.61
2023-03-23T23:00:21.801Z,21.62
2023-03-23T23:03:07.671Z,21.62
2023-03-23T23:05:54.718Z,21.62
2023-03-23T23:08:41.368Z,21.63
2023-03-23T23:11:27.093Z,21.62
2023-03-23T23:14:12.750Z,21.62
2023-03-23T23:16:58.362Z,21.62
2023-03-23T23:19:43.681Z,21.63
2023-03-23T23:22:29.145Z,21.63
2023-03-23T23:25:14.472Z,21.62
2023-03-23T23:28:01.677Z,21.63
2023-03-23T23:30:48.438Z,21.64
2023-03-23T23:33:34.164Z,21.64
2023-03-23T23:36:21.224Z,21.64
2023-03-23T23:39:06.893Z,21.64
2023-03-23T23:41:52.129Z,21.65
2023-03-23T23:44:38.548Z,21.65
2023-03-23T23:47:23.855Z,21.65
2023-03-23T23:50:12.170Z,21.64
2023-03-23T23:52:58.756Z,21.65
2023-03-23T23:55:44.103Z,21.64
2023-03-23T23:58:29.857Z,21.64
